sensor_id;sensor_type;location;lat;lon;timestamp;P1;durP1;ratioP1;P2;durP2;ratioP2
27857;SDS011;16852;51.446;6.528;2023-10-19T00:01:42;9.57;;;5.47;;
27857;SDS011;16852;51.446;6.528;2023-10-19T00:03:43;7.20;;;5.22;;
27857;SDS011;16852;51.446;6.528;2023-10-19T00:05:49;9.80;;;4.93;;
27857;SDS011;16852;51.446;6.528;2023-10-19T00:07:50;8.38;;;4.40;;
27857;SDS011;16852;51.446;6.528;2023-10-19T00:09:53;8.80;;;4.32;;
27857;SDS011;16852;51.446;6.528;2023-10-19T00:11:55;10.15;;;5.28;;
27857;SDS011;16852;51.446;6.528;2023-10-19T00:13:55;7.18;;;5.03;;
27857;SDS011;16852;51.446;6.528;2023-10-19T00:15:58;7.15;;;4.70;;
27857;SDS011;16852;51.446;6.528;2023-10-19T00:17:58;6.60;;;4.68;;
27857;SDS011;16852;51.446;6.528;2023-10-19T00:20:06;8.38;;;3.90;;
27857;SDS011;16852;51.446;6.528;2023-10-19T00:22:27;8.93;;;5.00;;
27857;SDS011;16852;51.446;6.528;2023-10-19T00:24:31;6.88;;;4.32;;
27857;SDS011;16852;51.446;6.528;2023-10-19T00:26:31;8.18;;;4.45;;
27857;SDS011;16852;51.446;6.528;2023-10-19T00:28:32;6.93;;;4.72;;
27857;SDS011;16852;51.446;6.528;2023-10-19T00:30:35;9.48;;;4.65;;
27857;SDS011;16852;51.446;6.528;2023-10-19T00:32:37;7.88;;;4.30;;
27857;SDS011;16852;51.446;6.528;2023-10-19T00:34:38;7.78;;;4.50;;
27857;SDS011;16852;51.446;6.528;2023-10-19T00:36:39;7.40;;;4.88;;
27857;SDS011;16852;51.446;6.528;2023-10-19T00:38:40;7.68;;;4.25;;
27857;SDS011;16852;51.446;6.528;2023-10-19T00:40:51;7.13;;;4.72;;
27857;SDS011;16852;51.446;6.528;2023-10-19T00:43:07;6.63;;;4.53;;
27857;SDS011;16852;51.446;6.528;2023-10-19T00:45:10;7.95;;;4.28;;
27857;SDS011;16852;51.446;6.528;2023-10-19T00:49:13;6.28;;;4.03;;
27857;SDS011;16852;51.446;6.528;2023-10-19T00:51:16;6.22;;;4.20;;
27857;SDS011;16852;51.446;6.528;2023-10-19T00:53:27;7.22;;;4.68;;
27857;SDS011;16852;51.446;6.528;2023-10-19T00:55:27;6.78;;;4.30;;
27857;SDS011;16852;51.446;6.528;2023-10-19T00:57:28;8.15;;;5.07;;
27857;SDS011;16852;51.446;6.528;2023-10-19T00:59:34;7.13;;;4.75;;
27857;SDS011;16852;51.446;6.528;2023-10-19T01:01:43;8.00;;;4.55;;
27857;SDS011;16852;51.446;6.528;2023-10-19T01:03:48;6.32;;;4.78;;
27857;SDS011;16852;51.446;6.528;2023-10-19T01:05:52;6.65;;;4.88;;
27857;SDS011;16852;51.446;6.528;2023-10-19T01:07:54;6.68;;;4.80;;
27857;SDS011;16852;51.446;6.528;2023-10-19T01:09:58;6.45;;;4.65;;
27857;SDS011;16852;51.446;6.528;2023-10-19T01:12:00;6.55;;;4.30;;
27857;SDS011;16852;51.446;6.528;2023-10-19T01:14:17;7.13;;;4.82;;
27857;SDS011;16852;51.446;6.528;2023-10-19T01:16:21;6.82;;;4.70;;
27857;SDS011;16852;51.446;6.528;2023-10-19T01:18:22;8.00;;;5.40;;
27857;SDS011;16852;51.446;6.528;2023-10-19T01:20:29;7.32;;;5.03;;
27857;SDS011;16852;51.446;6.528;2023-10-19T01:22:31;9.32;;;4.78;;
27857;SDS011;16852;51.446;6.528;2023-10-19T01:24:31;6.63;;;4.72;;
27857;SDS011;16852;51.446;6.528;2023-10-19T01:26:41;7.40;;;4.55;;
27857;SDS011;16852;51.446;6.528;2023-10-19T01:28:42;6.50;;;4.35;;
27857;SDS011;16852;51.446;6.528;2023-10-19T01:30:51;9.02;;;5.55;;
27857;SDS011;16852;51.446;6.528;2023-10-19T01:32:52;7.65;;;5.50;;
27857;SDS011;16852;51.446;6.528;2023-10-19T01:34:53;7.20;;;5.07;;
27857;SDS011;16852;51.446;6.528;2023-10-19T01:36:53;11.68;;;5.75;;
27857;SDS011;16852;51.446;6.528;2023-10-19T01:38:56;10.40;;;5.50;;
27857;SDS011;16852;51.446;6.528;2023-10-19T01:41:10;6.07;;;4.70;;
27857;SDS011;16852;51.446;6.528;2023-10-19T01:43:13;9.35;;;5.82;;
27857;SDS011;16852;51.446;6.528;2023-10-19T01:45:20;7.10;;;5.43;;
27857;SDS011;16852;51.446;6.528;2023-10-19T01:47:21;7.00;;;4.88;;
27857;SDS011;16852;51.446;6.528;2023-10-19T01:49:22;9.90;;;4.70;;
27857;SDS011;16852;51.446;6.528;2023-10-19T01:51:26;6.70;;;4.53;;
27857;SDS011;16852;51.446;6.528;2023-10-19T01:53:28;7.47;;;5.10;;
27857;SDS011;16852;51.446;6.528;2023-10-19T01:55:29;6.10;;;4.72;;
27857;SDS011;16852;51.446;6.528;2023-10-19T01:57:37;8.35;;;4.65;;
27857;SDS011;16852;51.446;6.528;2023-10-19T01:59:39;8.52;;;5.25;;
27857;SDS011;16852;51.446;6.528;2023-10-19T02:01:39;9.02;;;5.45;;
27857;SDS011;16852;51.446;6.528;2023-10-19T02:03:44;7.05;;;4.53;;
27857;SDS011;16852;51.446;6.528;2023-10-19T02:05:46;5.27;;;4.03;;
27857;SDS011;16852;51.446;6.528;2023-10-19T02:07:49;6.32;;;4.72;;
27857;SDS011;16852;51.446;6.528;2023-10-19T02:09:50;6.25;;;4.45;;
27857;SDS011;16852;51.446;6.528;2023-10-19T02:11:53;8.18;;;4.95;;
27857;SDS011;16852;51.446;6.528;2023-10-19T02:13:56;7.38;;;4.75;;
27857;SDS011;16852;51.446;6.528;2023-10-19T02:16:00;6.55;;;4.78;;
27857;SDS011;16852;51.446;6.528;2023-10-19T02:18:01;5.85;;;4.20;;
27857;SDS011;16852;51.446;6.528;2023-10-19T02:20:03;7.22;;;4.32;;
27857;SDS011;16852;51.446;6.528;2023-10-19T02:22:24;5.32;;;4.18;;
27857;SDS011;16852;51.446;6.528;2023-10-19T02:24:24;8.02;;;4.53;;
27857;SDS011;16852;51.446;6.528;2023-10-19T02:26:28;6.32;;;4.53;;
27857;SDS011;16852;51.446;6.528;2023-10-19T02:28:31;5.43;;;4.32;;
27857;SDS011;16852;51.446;6.528;2023-10-19T02:30:32;7.75;;;4.40;;
27857;SDS011;16852;51.446;6.528;2023-10-19T02:32:34;7.78;;;4.70;;
27857;SDS011;16852;51.446;6.528;2023-10-19T02:34:35;6.68;;;4.22;;
27857;SDS011;16852;51.446;6.528;2023-10-19T02:36:36;8.27;;;4.40;;
27857;SDS011;16852;51.446;6.528;2023-10-19T02:38:38;7.07;;;4.70;;
27857;SDS011;16852;51.446;6.528;2023-10-19T02:40:40;7.90;;;5.00;;
27857;SDS011;16852;51.446;6.528;2023-10-19T02:42:40;6.57;;;4.65;;
27857;SDS011;16852;51.446;6.528;2023-10-19T02:44:41;5.38;;;4.18;;
27857;SDS011;16852;51.446;6.528;2023-10-19T02:46:42;5.43;;;3.97;;
27857;SDS011;16852;51.446;6.528;2023-10-19T02:48:45;8.32;;;4.35;;
27857;SDS011;16852;51.446;6.528;2023-10-19T02:50:49;5.78;;;4.07;;
27857;SDS011;16852;51.446;6.528;2023-10-19T02:52:50;6.25;;;4.00;;
27857;SDS011;16852;51.446;6.528;2023-10-19T02:54:51;4.97;;;3.60;;
27857;SDS011;16852;51.446;6.528;2023-10-19T02:56:56;5.63;;;3.78;;
27857;SDS011;16852;51.446;6.528;2023-10-19T02:58:58;4.68;;;3.40;;
27857;SDS011;16852;51.446;6.528;2023-10-19T03:01:02;4.88;;;2.90;;
27857;SDS011;16852;51.446;6.528;2023-10-19T03:03:03;6.18;;;3.50;;
27857;SDS011;16852;51.446;6.528;2023-10-19T03:05:07;5.13;;;3.28;;
27857;SDS011;16852;51.446;6.528;2023-10-19T03:07:17;4.57;;;3.30;;
27857;SDS011;16852;51.446;6.528;2023-10-19T03:09:18;4.55;;;3.00;;
27857;SDS011;16852;51.446;6.528;2023-10-19T03:11:30;7.22;;;3.58;;
27857;SDS011;16852;51.446;6.528;2023-10-19T03:13:34;4.05;;;2.80;;
27857;SDS011;16852;51.446;6.528;2023-10-19T03:15:35;5.45;;;2.92;;
27857;SDS011;16852;51.446;6.528;2023-10-19T03:17:35;3.75;;;2.53;;
27857;SDS011;16852;51.446;6.528;2023-10-19T03:19:36;4.00;;;2.78;;
27857;SDS011;16852;51.446;6.528;2023-10-19T03:21:38;5.15;;;2.65;;
27857;SDS011;16852;51.446;6.528;2023-10-19T03:23:49;5.63;;;3.00;;
27857;SDS011;16852;51.446;6.528;2023-10-19T03:25:53;5.18;;;2.88;;
27857;SDS011;16852;51.446;6.528;2023-10-19T03:27:57;7.53;;;3.65;;
27857;SDS011;16852;51.446;6.528;2023-10-19T03:30:05;7.47;;;3.38;;
27857;SDS011;16852;51.446;6.528;2023-10-19T03:32:07;12.83;;;4.10;;
27857;SDS011;16852;51.446;6.528;2023-10-19T03:34:08;4.68;;;3.15;;
27857;SDS011;16852;51.446;6.528;2023-10-19T03:36:12;4.70;;;3.30;;
27857;SDS011;16852;51.446;6.528;2023-10-19T03:38:13;6.00;;;3.38;;
27857;SDS011;16852;51.446;6.528;2023-10-19T03:40:18;4.43;;;3.50;;
27857;SDS011;16852;51.446;6.528;2023-10-19T03:42:27;6.22;;;3.85;;
27857;SDS011;16852;51.446;6.528;2023-10-19T03:44:33;5.20;;;3.53;;
27857;SDS011;16852;51.446;6.528;2023-10-19T03:46:48;5.03;;;3.42;;
27857;SDS011;16852;51.446;6.528;2023-10-19T03:49:01;5.57;;;3.70;;
27857;SDS011;16852;51.446;6.528;2023-10-19T03:51:10;7.07;;;4.22;;
27857;SDS011;16852;51.446;6.528;2023-10-19T03:55:15;4.13;;;3.40;;
27857;SDS011;16852;51.446;6.528;2023-10-19T03:57:19;6.22;;;4.47;;
27857;SDS011;16852;51.446;6.528;2023-10-19T03:59:20;4.65;;;3.83;;
27857;SDS011;16852;51.446;6.528;2023-10-19T04:01:21;4.80;;;3.25;;
27857;SDS011;16852;51.446;6.528;2023-10-19T04:03:22;6.63;;;3.83;;
27857;SDS011;16852;51.446;6.528;2023-10-19T04:05:24;6.20;;;3.97;;
27857;SDS011;16852;51.446;6.528;2023-10-19T04:07:28;6.63;;;4.28;;
27857;SDS011;16852;51.446;6.528;2023-10-19T04:09:31;4.65;;;3.45;;
27857;SDS011;16852;51.446;6.528;2023-10-19T04:11:34;4.40;;;3.42;;
27857;SDS011;16852;51.446;6.528;2023-10-19T04:13:51;5.50;;;3.38;;
27857;SDS011;16852;51.446;6.528;2023-10-19T04:15:53;4.20;;;3.20;;
27857;SDS011;16852;51.446;6.528;2023-10-19T04:17:53;5.75;;;3.30;;
27857;SDS011;16852;51.446;6.528;2023-10-19T04:19:58;5.25;;;3.67;;
27857;SDS011;16852;51.446;6.528;2023-10-19T04:21:59;3.88;;;3.08;;
27857;SDS011;16852;51.446;6.528;2023-10-19T04:23:59;4.13;;;3.38;;
27857;SDS011;16852;51.446;6.528;2023-10-19T04:26:00;3.88;;;3.33;;
27857;SDS011;16852;51.446;6.528;2023-10-19T04:28:05;6.20;;;3.65;;
27857;SDS011;16852;51.446;6.528;2023-10-19T04:30:06;4.45;;;3.03;;
27857;SDS011;16852;51.446;6.528;2023-10-19T04:32:15;4.70;;;3.13;;
27857;SDS011;16852;51.446;6.528;2023-10-19T04:34:25;3.72;;;3.30;;
27857;SDS011;16852;51.446;6.528;2023-10-19T04:36:25;4.43;;;3.33;;
27857;SDS011;16852;51.446;6.528;2023-10-19T04:38:27;4.10;;;2.90;;
27857;SDS011;16852;51.446;6.528;2023-10-19T04:40:30;4.68;;;3.38;;
27857;SDS011;16852;51.446;6.528;2023-10-19T04:42:31;5.90;;;3.28;;
27857;SDS011;16852;51.446;6.528;2023-10-19T04:44:32;4.28;;;3.25;;
27857;SDS011;16852;51.446;6.528;2023-10-19T04:46:34;4.83;;;3.30;;
27857;SDS011;16852;51.446;6.528;2023-10-19T04:48:35;4.90;;;3.60;;
27857;SDS011;16852;51.446;6.528;2023-10-19T04:50:36;6.15;;;3.58;;
27857;SDS011;16852;51.446;6.528;2023-10-19T04:52:36;6.18;;;3.47;;
27857;SDS011;16852;51.446;6.528;2023-10-19T04:54:37;9.32;;;4.13;;
27857;SDS011;16852;51.446;6.528;2023-10-19T04:56:37;4.78;;;3.40;;
27857;SDS011;16852;51.446;6.528;2023-10-19T04:58:38;8.27;;;3.88;;
27857;SDS011;16852;51.446;6.528;2023-10-19T05:00:39;5.22;;;3.60;;
27857;SDS011;16852;51.446;6.528;2023-10-19T05:02:39;10.65;;;3.58;;
27857;SDS011;16852;51.446;6.528;2023-10-19T05:04:40;6.57;;;3.78;;
27857;SDS011;16852;51.446;6.528;2023-10-19T05:06:41;3.95;;;3.53;;
27857;SDS011;16852;51.446;6.528;2023-10-19T05:08:41;6.80;;;3.83;;
27857;SDS011;16852;51.446;6.528;2023-10-19T05:10:42;5.85;;;4.00;;
27857;SDS011;16852;51.446;6.528;2023-10-19T05:12:42;4.72;;;3.78;;
27857;SDS011;16852;51.446;6.528;2023-10-19T05:14:43;6.18;;;4.38;;
27857;SDS011;16852;51.446;6.528;2023-10-19T05:16:43;6.25;;;4.38;;
27857;SDS011;16852;51.446;6.528;2023-10-19T05:18:44;7.85;;;3.92;;
27857;SDS011;16852;51.446;6.528;2023-10-19T05:20:45;6.65;;;4.20;;
27857;SDS011;16852;51.446;6.528;2023-10-19T05:22:46;5.75;;;4.15;;
27857;SDS011;16852;51.446;6.528;2023-10-19T05:24:47;5.93;;;3.90;;
27857;SDS011;16852;51.446;6.528;2023-10-19T05:26:48;7.50;;;4.13;;
27857;SDS011;16852;51.446;6.528;2023-10-19T05:28:49;5.03;;;3.20;;
27857;SDS011;16852;51.446;6.528;2023-10-19T05:30:50;6.63;;;3.83;;
27857;SDS011;16852;51.446;6.528;2023-10-19T05:32:51;7.53;;;4.05;;
27857;SDS011;16852;51.446;6.528;2023-10-19T05:34:51;5.35;;;3.70;;
27857;SDS011;16852;51.446;6.528;2023-10-19T05:36:52;6.28;;;3.92;;
27857;SDS011;16852;51.446;6.528;2023-10-19T05:38:54;5.03;;;3.58;;
27857;SDS011;16852;51.446;6.528;2023-10-19T05:40:56;4.82;;;3.28;;
27857;SDS011;16852;51.446;6.528;2023-10-19T05:42:57;4.05;;;3.30;;
27857;SDS011;16852;51.446;6.528;2023-10-19T05:44:58;6.25;;;3.15;;
27857;SDS011;16852;51.446;6.528;2023-10-19T05:46:59;4.68;;;3.20;;
27857;SDS011;16852;51.446;6.528;2023-10-19T05:49:00;3.95;;;2.95;;
27857;SDS011;16852;51.446;6.528;2023-10-19T05:51:03;5.05;;;2.97;;
27857;SDS011;16852;51.446;6.528;2023-10-19T05:53:04;3.97;;;3.05;;
27857;SDS011;16852;51.446;6.528;2023-10-19T05:55:05;4.25;;;2.70;;
27857;SDS011;16852;51.446;6.528;2023-10-19T05:57:06;5.15;;;3.13;;
27857;SDS011;16852;51.446;6.528;2023-10-19T06:01:10;5.50;;;2.72;;
27857;SDS011;16852;51.446;6.528;2023-10-19T06:03:10;4.47;;;2.85;;
27857;SDS011;16852;51.446;6.528;2023-10-19T06:05:14;3.60;;;2.80;;
27857;SDS011;16852;51.446;6.528;2023-10-19T06:07:16;5.07;;;2.97;;
27857;SDS011;16852;51.446;6.528;2023-10-19T06:09:16;5.68;;;3.00;;
27857;SDS011;16852;51.446;6.528;2023-10-19T06:11:17;3.63;;;2.60;;
27857;SDS011;16852;51.446;6.528;2023-10-19T06:13:18;7.50;;;2.80;;
27857;SDS011;16852;51.446;6.528;2023-10-19T06:15:20;3.30;;;2.87;;
27857;SDS011;16852;51.446;6.528;2023-10-19T06:17:24;2.97;;;2.28;;
27857;SDS011;16852;51.446;6.528;2023-10-19T06:19:25;4.85;;;2.80;;
27857;SDS011;16852;51.446;6.528;2023-10-19T06:21:26;4.57;;;2.63;;
27857;SDS011;16852;51.446;6.528;2023-10-19T06:23:27;3.17;;;2.47;;
27857;SDS011;16852;51.446;6.528;2023-10-19T06:25:27;4.18;;;2.40;;
27857;SDS011;16852;51.446;6.528;2023-10-19T06:27:28;2.63;;;2.03;;
27857;SDS011;16852;51.446;6.528;2023-10-19T06:29:29;4.28;;;2.25;;
27857;SDS011;16852;51.446;6.528;2023-10-19T06:31:30;6.35;;;3.35;;
27857;SDS011;16852;51.446;6.528;2023-10-19T06:33:31;3.88;;;2.75;;
27857;SDS011;16852;51.446;6.528;2023-10-19T06:35:34;3.83;;;2.35;;
27857;SDS011;16852;51.446;6.528;2023-10-19T06:39:38;4.78;;;2.58;;
27857;SDS011;16852;51.446;6.528;2023-10-19T06:41:41;5.20;;;3.03;;
27857;SDS011;16852;51.446;6.528;2023-10-19T06:43:42;4.70;;;2.90;;
27857;SDS011;16852;51.446;6.528;2023-10-19T06:45:46;5.25;;;3.42;;
27857;SDS011;16852;51.446;6.528;2023-10-19T06:47:47;7.03;;;3.20;;
27857;SDS011;16852;51.446;6.528;2023-10-19T06:49:49;8.40;;;5.45;;
27857;SDS011;16852;51.446;6.528;2023-10-19T06:51:50;8.35;;;5.13;;
27857;SDS011;16852;51.446;6.528;2023-10-19T06:53:50;5.05;;;3.55;;
27857;SDS011;16852;51.446;6.528;2023-10-19T06:55:51;4.90;;;3.10;;
27857;SDS011;16852;51.446;6.528;2023-10-19T06:57:53;3.95;;;3.03;;
27857;SDS011;16852;51.446;6.528;2023-10-19T07:01:55;6.13;;;3.17;;
27857;SDS011;16852;51.446;6.528;2023-10-19T07:03:56;4.38;;;2.60;;
27857;SDS011;16852;51.446;6.528;2023-10-19T07:05:57;7.13;;;2.83;;
27857;SDS011;16852;51.446;6.528;2023-10-19T07:07:58;4.15;;;3.00;;
27857;SDS011;16852;51.446;6.528;2023-10-19T07:09:59;5.50;;;2.90;;
27857;SDS011;16852;51.446;6.528;2023-10-19T07:12:00;4.10;;;3.13;;
27857;SDS011;16852;51.446;6.528;2023-10-19T07:14:01;4.63;;;2.95;;
27857;SDS011;16852;51.446;6.528;2023-10-19T07:16:01;4.55;;;2.60;;
27857;SDS011;16852;51.446;6.528;2023-10-19T07:18:04;4.72;;;3.10;;
27857;SDS011;16852;51.446;6.528;2023-10-19T07:20:06;4.15;;;2.65;;
27857;SDS011;16852;51.446;6.528;2023-10-19T07:22:09;4.70;;;2.90;;
27857;SDS011;16852;51.446;6.528;2023-10-19T07:24:10;3.53;;;2.45;;
27857;SDS011;16852;51.446;6.528;2023-10-19T07:26:11;7.03;;;4.20;;
27857;SDS011;16852;51.446;6.528;2023-10-19T07:28:17;4.80;;;3.42;;
27857;SDS011;16852;51.446;6.528;2023-10-19T07:30:18;4.05;;;3.00;;
27857;SDS011;16852;51.446;6.528;2023-10-19T07:32:25;4.57;;;2.70;;
27857;SDS011;16852;51.446;6.528;2023-10-19T07:34:31;3.65;;;2.70;;
27857;SDS011;16852;51.446;6.528;2023-10-19T07:36:33;4.82;;;2.90;;
27857;SDS011;16852;51.446;6.528;2023-10-19T07:38:36;4.25;;;2.90;;
27857;SDS011;16852;51.446;6.528;2023-10-19T07:40:39;4.13;;;2.50;;
27857;SDS011;16852;51.446;6.528;2023-10-19T07:42:40;3.85;;;2.65;;
27857;SDS011;16852;51.446;6.528;2023-10-19T07:44:42;4.70;;;3.10;;
27857;SDS011;16852;51.446;6.528;2023-10-19T07:46:43;4.30;;;2.97;;
27857;SDS011;16852;51.446;6.528;2023-10-19T07:48:44;5.70;;;3.47;;
27857;SDS011;16852;51.446;6.528;2023-10-19T07:50:44;6.60;;;3.05;;
27857;SDS011;16852;51.446;6.528;2023-10-19T07:52:51;4.68;;;2.55;;
27857;SDS011;16852;51.446;6.528;2023-10-19T07:54:53;5.45;;;3.28;;
27857;SDS011;16852;51.446;6.528;2023-10-19T07:56:54;5.03;;;2.92;;
27857;SDS011;16852;51.446;6.528;2023-10-19T07:58:54;5.07;;;3.00;;
27857;SDS011;16852;51.446;6.528;2023-10-19T08:00:56;3.97;;;2.90;;
27857;SDS011;16852;51.446;6.528;2023-10-19T08:02:57;4.57;;;3.13;;
27857;SDS011;16852;51.446;6.528;2023-10-19T08:04:58;5.30;;;3.10;;
27857;SDS011;16852;51.446;6.528;2023-10-19T08:21:56;5.07;;;2.80;;
27857;SDS011;16852;51.446;6.528;2023-10-19T08:23:57;5.47;;;3.17;;
27857;SDS011;16852;51.446;6.528;2023-10-19T08:25:58;4.13;;;2.45;;
27857;SDS011;16852;51.446;6.528;2023-10-19T08:27:59;5.25;;;2.90;;
27857;SDS011;16852;51.446;6.528;2023-10-19T08:30:01;4.33;;;2.80;;
27857;SDS011;16852;51.446;6.528;2023-10-19T08:32:03;5.60;;;3.22;;
27857;SDS011;16852;51.446;6.528;2023-10-19T08:34:04;4.88;;;2.72;;
27857;SDS011;16852;51.446;6.528;2023-10-19T08:36:05;4.65;;;2.60;;
27857;SDS011;16852;51.446;6.528;2023-10-19T08:38:06;3.70;;;2.30;;
27857;SDS011;16852;51.446;6.528;2023-10-19T08:40:11;5.55;;;2.30;;
27857;SDS011;16852;51.446;6.528;2023-10-19T08:42:15;4.40;;;2.72;;
27857;SDS011;16852;51.446;6.528;2023-10-19T08:44:16;6.68;;;2.80;;
27857;SDS011;16852;51.446;6.528;2023-10-19T08:46:17;5.25;;;2.22;;
27857;SDS011;16852;51.446;6.528;2023-10-19T08:48:18;4.78;;;2.55;;
27857;SDS011;16852;51.446;6.528;2023-10-19T08:50:19;10.88;;;5.60;;
27857;SDS011;16852;51.446;6.528;2023-10-19T08:52:23;7.50;;;4.10;;
27857;SDS011;16852;51.446;6.528;2023-10-19T08:54:26;5.47;;;3.15;;
27857;SDS011;16852;51.446;6.528;2023-10-19T08:56:27;4.85;;;2.85;;
27857;SDS011;16852;51.446;6.528;2023-10-19T08:58:28;5.03;;;2.45;;
27857;SDS011;16852;51.446;6.528;2023-10-19T09:00:38;8.13;;;2.17;;
27857;SDS011;16852;51.446;6.528;2023-10-19T09:02:51;3.90;;;2.67;;
27857;SDS011;16852;51.446;6.528;2023-10-19T09:04:52;7.03;;;2.78;;
27857;SDS011;16852;51.446;6.528;2023-10-19T09:06:54;5.45;;;2.78;;
27857;SDS011;16852;51.446;6.528;2023-10-19T09:08:55;3.92;;;2.47;;
27857;SDS011;16852;51.446;6.528;2023-10-19T09:12:59;5.40;;;2.65;;
27857;SDS011;16852;51.446;6.528;2023-10-19T09:15:00;2.30;;;2.10;;
27857;SDS011;16852;51.446;6.528;2023-10-19T09:17:27;5.40;;;2.35;;
27857;SDS011;16852;51.446;6.528;2023-10-19T09:21:55;4.30;;;2.15;;
27857;SDS011;16852;51.446;6.528;2023-10-19T09:24:14;5.60;;;2.30;;
27857;SDS011;16852;51.446;6.528;2023-10-19T09:26:34;5.25;;;2.30;;
27857;SDS011;16852;51.446;6.528;2023-10-19T09:28:55;7.03;;;2.60;;
27857;SDS011;16852;51.446;6.528;2023-10-19T09:31:14;5.55;;;3.25;;
27857;SDS011;16852;51.446;6.528;2023-10-19T09:33:35;7.10;;;3.78;;
27857;SDS011;16852;51.446;6.528;2023-10-19T09:35:54;9.85;;;3.63;;
27857;SDS011;16852;51.446;6.528;2023-10-19T09:38:15;8.88;;;3.28;;
27857;SDS011;16852;51.446;6.528;2023-10-19T09:40:34;6.45;;;2.50;;
27857;SDS011;16852;51.446;6.528;2023-10-19T09:42:54;5.70;;;2.67;;
27857;SDS011;16852;51.446;6.528;2023-10-19T09:45:18;5.75;;;2.47;;
27857;SDS011;16852;51.446;6.528;2023-10-19T09:47:38;6.05;;;2.55;;
27857;SDS011;16852;51.446;6.528;2023-10-19T09:49:43;4.65;;;1.98;;
27857;SDS011;16852;51.446;6.528;2023-10-19T09:51:44;3.85;;;1.80;;
27857;SDS011;16852;51.446;6.528;2023-10-19T09:53:53;5.53;;;2.33;;
27857;SDS011;16852;51.446;6.528;2023-10-19T09:56:10;4.82;;;2.22;;
27857;SDS011;16852;51.446;6.528;2023-10-19T09:58:19;5.53;;;2.15;;
27857;SDS011;16852;51.446;6.528;2023-10-19T10:00:23;4.35;;;2.17;;
27857;SDS011;16852;51.446;6.528;2023-10-19T10:02:23;6.18;;;2.10;;
27857;SDS011;16852;51.446;6.528;2023-10-19T10:04:32;3.30;;;1.42;;
27857;SDS011;16852;51.446;6.528;2023-10-19T10:07:18;3.25;;;1.48;;
27857;SDS011;16852;51.446;6.528;2023-10-19T10:08:54;4.53;;;1.50;;
27857;SDS011;16852;51.446;6.528;2023-10-19T10:10:56;3.90;;;1.98;;
27857;SDS011;16852;51.446;6.528;2023-10-19T10:13:03;10.85;;;2.28;;
27857;SDS011;16852;51.446;6.528;2023-10-19T10:15:37;6.82;;;2.00;;
27857;SDS011;16852;51.446;6.528;2023-10-19T10:17:40;3.95;;;1.80;;
27857;SDS011;16852;51.446;6.528;2023-10-19T10:19:41;6.28;;;2.47;;
27857;SDS011;16852;51.446;6.528;2023-10-19T10:21:41;4.25;;;1.55;;
27857;SDS011;16852;51.446;6.528;2023-10-19T10:24:11;6.03;;;2.10;;
27857;SDS011;16852;51.446;6.528;2023-10-19T10:26:18;8.02;;;3.25;;
27857;SDS011;16852;51.446;6.528;2023-10-19T10:28:20;6.30;;;2.80;;
27857;SDS011;16852;51.446;6.528;2023-10-19T10:30:23;5.55;;;1.98;;
27857;SDS011;16852;51.446;6.528;2023-10-19T10:34:52;6.50;;;1.95;;
27857;SDS011;16852;51.446;6.528;2023-10-19T10:36:56;5.38;;;1.70;;
27857;SDS011;16852;51.446;6.528;2023-10-19T10:39:02;5.53;;;1.55;;
27857;SDS011;16852;51.446;6.528;2023-10-19T10:41:06;4.07;;;1.75;;
27857;SDS011;16852;51.446;6.528;2023-10-19T10:43:11;4.43;;;1.52;;
27857;SDS011;16852;51.446;6.528;2023-10-19T10:45:18;3.13;;;1.40;;
27857;SDS011;16852;51.446;6.528;2023-10-19T10:47:21;3.50;;;1.40;;
27857;SDS011;16852;51.446;6.528;2023-10-19T10:49:24;2.90;;;1.20;;
27857;SDS011;16852;51.446;6.528;2023-10-19T10:51:26;8.32;;;3.55;;
27857;SDS011;16852;51.446;6.528;2023-10-19T10:53:31;8.63;;;2.25;;
27857;SDS011;16852;51.446;6.528;2023-10-19T10:55:32;4.35;;;1.92;;
27857;SDS011;16852;51.446;6.528;2023-10-19T10:57:32;3.13;;;1.48;;
27857;SDS011;16852;51.446;6.528;2023-10-19T10:59:34;5.03;;;1.48;;
27857;SDS011;16852;51.446;6.528;2023-10-19T11:01:36;4.15;;;1.50;;
27857;SDS011;16852;51.446;6.528;2023-10-19T11:03:37;7.53;;;2.30;;
27857;SDS011;16852;51.446;6.528;2023-10-19T11:05:37;5.10;;;1.52;;
27857;SDS011;16852;51.446;6.528;2023-10-19T11:07:39;6.20;;;1.92;;
27857;SDS011;16852;51.446;6.528;2023-10-19T11:09:43;5.63;;;1.77;;
27857;SDS011;16852;51.446;6.528;2023-10-19T11:11:45;5.07;;;1.70;;
27857;SDS011;16852;51.446;6.528;2023-10-19T11:13:46;5.75;;;1.33;;
27857;SDS011;16852;51.446;6.528;2023-10-19T11:15:53;5.65;;;1.60;;
27857;SDS011;16852;51.446;6.528;2023-10-19T11:17:56;8.90;;;1.98;;
27857;SDS011;16852;51.446;6.528;2023-10-19T11:19:57;10.75;;;1.85;;
27857;SDS011;16852;51.446;6.528;2023-10-19T11:21:58;6.32;;;1.77;;
27857;SDS011;16852;51.446;6.528;2023-10-19T11:23:59;4.85;;;1.58;;
27857;SDS011;16852;51.446;6.528;2023-10-19T11:26:00;5.20;;;1.45;;
27857;SDS011;16852;51.446;6.528;2023-10-19T11:28:02;4.10;;;1.63;;
27857;SDS011;16852;51.446;6.528;2023-10-19T11:30:27;4.88;;;1.60;;
27857;SDS011;16852;51.446;6.528;2023-10-19T11:32:38;5.10;;;1.60;;
27857;SDS011;16852;51.446;6.528;2023-10-19T11:34:39;7.70;;;2.08;;
27857;SDS011;16852;51.446;6.528;2023-10-19T11:36:40;6.53;;;1.70;;
27857;SDS011;16852;51.446;6.528;2023-10-19T11:38:44;8.88;;;2.40;;
27857;SDS011;16852;51.446;6.528;2023-10-19T11:40:46;8.15;;;2.30;;
27857;SDS011;16852;51.446;6.528;2023-10-19T11:42:47;4.13;;;1.63;;
27857;SDS011;16852;51.446;6.528;2023-10-19T11:44:49;3.25;;;1.73;;
27857;SDS011;16852;51.446;6.528;2023-10-19T11:46:49;6.93;;;1.70;;
27857;SDS011;16852;51.446;6.528;2023-10-19T11:48:50;3.53;;;1.52;;
27857;SDS011;16852;51.446;6.528;2023-10-19T11:50:50;4.90;;;1.80;;
27857;SDS011;16852;51.446;6.528;2023-10-19T11:52:51;6.30;;;1.55;;
27857;SDS011;16852;51.446;6.528;2023-10-19T11:54:52;4.18;;;1.58;;
27857;SDS011;16852;51.446;6.528;2023-10-19T11:56:54;5.13;;;1.60;;
27857;SDS011;16852;51.446;6.528;2023-10-19T11:58:54;3.72;;;1.52;;
27857;SDS011;16852;51.446;6.528;2023-10-19T12:00:55;2.97;;;1.42;;
27857;SDS011;16852;51.446;6.528;2023-10-19T12:02:56;6.40;;;1.83;;
27857;SDS011;16852;51.446;6.528;2023-10-19T12:04:56;4.60;;;1.80;;
27857;SDS011;16852;51.446;6.528;2023-10-19T12:06:57;7.32;;;1.55;;
27857;SDS011;16852;51.446;6.528;2023-10-19T12:08:57;7.95;;;2.03;;
27857;SDS011;16852;51.446;6.528;2023-10-19T12:11:03;6.68;;;1.83;;
27857;SDS011;16852;51.446;6.528;2023-10-19T12:13:04;6.68;;;2.13;;
27857;SDS011;16852;51.446;6.528;2023-10-19T12:15:09;4.53;;;1.65;;
27857;SDS011;16852;51.446;6.528;2023-10-19T12:17:12;11.82;;;2.40;;
27857;SDS011;16852;51.446;6.528;2023-10-19T12:19:13;3.63;;;1.25;;
27857;SDS011;16852;51.446;6.528;2023-10-19T12:21:14;6.65;;;1.70;;
27857;SDS011;16852;51.446;6.528;2023-10-19T12:23:15;5.10;;;1.58;;
27857;SDS011;16852;51.446;6.528;2023-10-19T12:25:15;6.32;;;2.05;;
27857;SDS011;16852;51.446;6.528;2023-10-19T12:27:16;5.00;;;2.00;;
27857;SDS011;16852;51.446;6.528;2023-10-19T12:29:18;4.80;;;1.55;;
27857;SDS011;16852;51.446;6.528;2023-10-19T12:31:21;5.18;;;2.00;;
27857;SDS011;16852;51.446;6.528;2023-10-19T12:33:23;3.72;;;1.50;;
27857;SDS011;16852;51.446;6.528;2023-10-19T12:35:24;6.65;;;1.83;;
27857;SDS011;16852;51.446;6.528;2023-10-19T12:37:32;7.22;;;2.15;;
27857;SDS011;16852;51.446;6.528;2023-10-19T12:39:33;4.25;;;1.83;;
27857;SDS011;16852;51.446;6.528;2023-10-19T12:41:44;3.97;;;1.50;;
27857;SDS011;16852;51.446;6.528;2023-10-19T12:43:47;5.32;;;1.88;;
27857;SDS011;16852;51.446;6.528;2023-10-19T12:45:48;6.40;;;1.85;;
27857;SDS011;16852;51.446;6.528;2023-10-19T12:47:55;5.07;;;1.65;;
27857;SDS011;16852;51.446;6.528;2023-10-19T12:49:56;7.75;;;2.17;;
27857;SDS011;16852;51.446;6.528;2023-10-19T12:51:57;9.15;;;1.88;;
27857;SDS011;16852;51.446;6.528;2023-10-19T12:53:57;5.65;;;1.52;;
27857;SDS011;16852;51.446;6.528;2023-10-19T12:55:58;6.32;;;1.98;;
27857;SDS011;16852;51.446;6.528;2023-10-19T12:57:59;5.45;;;2.00;;